Time,TemperatureF,DewpointF,PressureIn,WindDirection,WindDirectionDegrees,WindSpeedMPH,WindSpeedGustMPH,Humidity,HourlyPrecipIn,Conditions,Clouds,dailyrainin,SoftwareType,DateUTC
2015-06-30 00:01:00,73.0,60.1,29.74,NNW,330,0.0,0.0,64,0.00,,---,0.00,VWS V14.01,2015-06-30 07:01:00,
2015-06-30 00:06:00,72.9,60.0,29.74,NNW,331,0.0,0.0,64,0.00,,---,0.00,VWS V14.01,2015-06-30 07:06:00,
2015-06-30 00:11:00,72.7,60.7,29.74,NNW,330,0.0,0.0,66,0.00,,---,0.00,VWS V14.01,2015-06-30 07:11:00,
2015-06-30 00:16:00,72.1,61.0,29.74,NNW,331,0.0,1.0,68,0.00,,---,0.00,VWS V14.01,2015-06-30 07:16:00,
2015-06-30 00:21:00,71.6,60.9,29.74,NNW,330,0.0,0.0,69,0.00,,---,0.00,VWS V14.01,2015-06-30 07:21:00,
2015-06-30 00:26:00,71.3,61.0,29.74,NNW,332,0.0,0.0,70,0.00,,---,0.00,VWS V14.01,2015-06-30 07:26:00,
2015-06-30 00:31:00,71.2,60.9,29.74,NNW,331,0.0,0.0,70,0.00,,---,0.00,VWS V14.01,2015-06-30 07:31:00,
2015-06-30 00:36:00,71.3,61.0,29.74,NNW,333,0.0,0.0,70,0.00,,---,0.00,VWS V14.01,2015-06-30 07:36:00,
2015-06-30 00:41:00,71.3,61.0,29.74,NNW,333,0.0,0.0,70,0.00,,---,0.00,VWS V14.01,2015-06-30 07:41:00,
2015-06-30 00:46:00,71.6,60.5,29.74,NNW,334,0.0,1.0,68,0.00,,---,0.00,VWS V14.01,2015-06-30 07:46:00,
2015-06-30 00:51:00,71.9,60.8,29.74,NNW,336,2.0,3.0,68,0.00,,---,0.00,VWS V14.01,2015-06-30 07:51:00,
2015-06-30 00:56:00,72.1,60.5,29.74,NNW,336,0.0,0.0,67,0.00,,---,0.00,VWS V14.01,2015-06-30 07:56:00,
2015-06-30 01:01:00,72.4,60.8,29.74,NNW,336,0.0,0.0,67,0.00,,---,0.00,VWS V14.01,2015-06-30 08:01:00,
2015-06-30 01:06:00,72.5,60.9,29.74,NNW,336,0.0,0.0,67,0.00,,---,0.00,VWS V14.01,2015-06-30 08:06:00,
2015-06-30 01:11:00,72.5,60.9,29.74,NNW,336,0.0,0.0,67,0.00,,---,0.00,VWS V14.01,2015-06-30 08:11:00,
2015-06-30 01:16:00,72.6,61.0,29.74,NNW,336,0.0,0.0,67,0.00,,---,0.00,VWS V14.01,2015-06-30 08:16:00,
2015-06-30 01:21:00,72.6,61.4,29.74,NNW,336,0.0,0.0,68,0.00,,---,0.00,VWS V14.01,2015-06-30 08:21:00,
2015-06-30 01:26:00,72.5,61.8,29.74,NNW,336,0.0,0.0,69,0.00,,---,0.00,VWS V14.01,2015-06-30 08:26:00,
2015-06-30 01:31:00,72.4,61.7,29.75,NNW,336,0.0,0.0,69,0.00,,---,0.00,VWS V14.01,2015-06-30 08:31:00,
2015-06-30 01:36:00,72.5,61.8,29.75,NNW,336,0.0,0.0,69,0.00,,---,0.00,VWS V14.01,2015-06-30 08:36:00,
2015-06-30 01:41:00,72.5,61.8,29.75,NNW,342,0.0,1.0,69,0.00,,---,0.00,VWS V14.01,2015-06-30 08:41:00,
2015-06-30 01:46:00,72.7,61.5,29.76,NNW,346,0.0,0.0,68,0.00,,---,0.00,VWS V14.01,2015-06-30 08:46:00,
2015-06-30 01:51:00,72.8,62.5,29.77,North,5,0.0,0.0,70,0.01,,---,0.01,VWS V14.01,2015-06-30 08:51:00,
2015-06-30 01:56:00,71.8,63.1,29.78,NE,46,6.0,9.0,74,0.03,,---,0.03,VWS V14.01,2015-06-30 08:56:00,
2015-06-30 02:01:00,70.5,61.8,29.77,NNW,341,4.0,7.0,74,0.10,,---,0.10,VWS V14.01,2015-06-30 09:01:00,
2015-06-30 02:06:00,70.3,62.8,29.77,NNW,346,0.0,4.0,77,0.10,,---,0.10,VWS V14.01,2015-06-30 09:06:00,
2015-06-30 02:11:00,69.7,62.9,29.76,NNW,348,0.0,4.0,79,0.11,,---,0.11,VWS V14.01,2015-06-30 09:11:00,
2015-06-30 02:16:00,69.3,63.2,29.75,NNW,331,7.0,10.0,81,0.11,,---,0.11,VWS V14.01,2015-06-30 09:16:00,
2015-06-30 02:21:00,69.3,63.2,29.74,NW,323,7.0,14.0,81,0.12,,---,0.12,VWS V14.01,2015-06-30 09:21:00,
2015-06-30 02:25:00,69.9,62.7,29.75,NNE,22,3.0,10.0,78,0.12,,---,0.12,VWS V14.01,2015-06-30 09:25:00,
2015-06-30 02:30:00,70.0,62.8,29.76,ENE,62,0.0,6.0,78,0.12,,---,0.12,VWS V14.01,2015-06-30 09:30:00,
2015-06-30 02:35:00,69.7,64.0,29.78,ESE,102,6.0,7.0,82,0.12,,---,0.12,VWS V14.01,2015-06-30 09:35:00,
2015-06-30 02:40:00,69.2,63.8,29.78,ENE,76,5.0,11.0,83,0.12,,---,0.12,VWS V14.01,2015-06-30 09:40:00,
2015-06-30 02:45:00,69.6,63.2,29.78,East,79,5.0,14.0,80,0.12,,---,0.12,VWS V14.01,2015-06-30 09:45:00,
2015-06-30 02:50:00,70.4,62.5,29.78,ENE,74,0.0,11.0,76,0.12,,---,0.12,VWS V14.01,2015-06-30 09:50:00,
2015-06-30 02:55:00,70.4,62.5,29.79,East,80,4.0,5.0,76,0.11,,---,0.12,VWS V14.01,2015-06-30 09:55:00,
2015-06-30 03:00:00,70.3,62.8,29.79,East,84,6.0,6.0,77,0.08,,---,0.12,VWS V14.01,2015-06-30 10:00:00,
2015-06-30 03:05:00,70.3,63.1,29.79,East,83,2.0,5.0,78,0.02,,---,0.12,VWS V14.01,2015-06-30 10:05:00,
2015-06-30 03:10:00,70.6,61.9,29.79,East,88,3.0,7.0,74,0.02,,---,0.12,VWS V14.01,2015-06-30 10:10:00,
2015-06-30 03:15:00,71.1,61.2,29.79,East,83,0.0,7.0,71,0.01,,---,0.12,VWS V14.01,2015-06-30 10:15:00,
2015-06-30 03:20:00,71.1,61.6,29.79,East,84,0.0,2.0,72,0.01,,---,0.12,VWS V14.01,2015-06-30 10:20:00,
2015-06-30 03:25:00,71.0,59.9,29.79,East,80,12.0,16.0,68,0.00,,---,0.12,VWS V14.01,2015-06-30 10:25:00,
2015-06-30 03:30:00,71.2,60.5,29.79,East,86,5.0,14.0,69,0.00,,---,0.12,VWS V14.01,2015-06-30 10:30:00,
2015-06-30 03:35:00,69.9,58.9,29.78,NE,55,5.0,16.0,68,0.00,,---,0.12,VWS V14.01,2015-06-30 10:35:00,
2015-06-30 03:40:00,69.8,60.0,29.75,NNE,15,0.0,14.0,71,0.00,,---,0.12,VWS V14.01,2015-06-30 10:40:00,
2015-06-30 03:45:00,69.2,58.6,29.75,West,272,0.0,6.0,69,0.00,,---,0.12,VWS V14.01,2015-06-30 10:45:00,
2015-06-30 03:50:00,68.6,60.4,29.77,East,98,0.0,7.0,75,0.00,,---,0.12,VWS V14.01,2015-06-30 10:50:00,
2015-06-30 03:55:00,68.2,60.0,29.76,ESE,107,0.0,4.0,75,0.00,,---,0.12,VWS V14.01,2015-06-30 10:55:00,
2015-06-30 04:00:00,68.0,60.2,29.76,SE,136,0.0,0.0,76,0.00,,---,0.12,VWS V14.01,2015-06-30 11:00:00,
2015-06-30 04:05:00,68.2,60.3,29.77,SSE,153,0.0,0.0,76,0.00,,---,0.12,VWS V14.01,2015-06-30 11:05:00,
2015-06-30 04:10:00,68.5,60.3,29.77,ESE,121,0.0,0.0,75,0.00,,---,0.12,VWS V14.01,2015-06-30 11:10:00,
2015-06-30 04:15:00,69.2,60.2,29.77,ESE,123,0.0,0.0,73,0.00,,---,0.12,VWS V14.01,2015-06-30 11:15:00,
2015-06-30 04:20:00,69.6,61.0,29.76,WSW,237,4.0,6.0,74,0.00,,---,0.12,VWS V14.01,2015-06-30 11:20:00,
2015-06-30 04:25:00,69.4,60.4,29.74,WNW,282,0.0,7.0,73,0.00,,---,0.12,VWS V14.01,2015-06-30 11:25:00,
2015-06-30 04:30:00,69.4,60.4,29.75,West,281,0.0,0.0,73,0.00,,---,0.12,VWS V14.01,2015-06-30 11:30:00,
2015-06-30 04:35:00,69.4,60.8,29.77,NW,310,0.0,2.0,74,0.00,,---,0.12,VWS V14.01,2015-06-30 11:35:00,
2015-06-30 04:40:00,68.6,61.1,29.77,SE,126,0.0,4.0,77,0.00,,---,0.12,VWS V14.01,2015-06-30 11:40:00,
2015-06-30 04:45:00,68.3,61.2,29.77,ENE,66,3.0,5.0,78,0.00,,---,0.12,VWS V14.01,2015-06-30 11:45:00,
2015-06-30 04:50:00,68.0,61.2,29.77,NE,53,3.0,6.0,79,0.00,,---,0.12,VWS V14.01,2015-06-30 11:50:00,
2015-06-30 04:55:00,67.6,61.2,29.76,NE,54,0.0,5.0,80,0.00,,---,0.12,VWS V14.01,2015-06-30 11:55:00,
2015-06-30 05:00:00,67.5,61.8,29.76,NE,54,0.0,4.0,82,0.00,,---,0.12,VWS V14.01,2015-06-30 12:00:00,
2015-06-30 05:05:00,67.4,61.7,29.76,NE,49,3.0,6.0,82,0.00,,---,0.12,VWS V14.01,2015-06-30 12:05:00,
2015-06-30 05:10:00,67.3,61.6,29.76,NE,56,2.0,6.0,82,0.00,,---,0.12,VWS V14.01,2015-06-30 12:10:00,
2015-06-30 05:15:00,67.3,61.6,29.76,ENE,66,4.0,6.0,82,0.00,,---,0.12,VWS V14.01,2015-06-30 12:15:00,
2015-06-30 05:20:00,67.5,61.8,29.76,NE,52,2.0,7.0,82,0.00,,---,0.12,VWS V14.01,2015-06-30 12:20:00,
2015-06-30 05:25:00,67.5,61.8,29.76,NE,56,0.0,0.0,82,0.00,,---,0.12,VWS V14.01,2015-06-30 12:25:00,
2015-06-30 05:30:00,67.5,61.8,29.76,ENE,59,0.0,0.0,82,0.00,,---,0.12,VWS V14.01,2015-06-30 12:30:00,
2015-06-30 05:35:00,67.5,62.2,29.75,ENE,59,0.0,0.0,83,0.00,,---,0.12,VWS V14.01,2015-06-30 12:35:00,
2015-06-30 05:40:00,67.3,61.6,29.76,ENE,59,0.0,4.0,82,0.00,,---,0.12,VWS V14.01,2015-06-30 12:40:00,